sensor_id;sensor_type;location;lat;lon;timestamp;temperature;humidity
19870;DHT22;10097;50.862;4.696;2022-12-13T00:00:16;-2.70;99.90
19870;DHT22;10097;50.862;4.696;2022-12-13T00:02:44;-2.70;99.90
19870;DHT22;10097;50.862;4.696;2022-12-13T00:05:10;-2.80;99.90
19870;DHT22;10097;50.862;4.696;2022-12-13T00:07:37;-2.80;99.90
19870;DHT22;10097;50.862;4.696;2022-12-13T00:10:03;-2.80;99.90
19870;DHT22;10097;50.862;4.696;2022-12-13T00:12:29;-2.80;99.90
19870;DHT22;10097;50.862;4.696;2022-12-13T00:14:55;-2.80;99.90
19870;DHT22;10097;50.862;4.696;2022-12-13T00:17:21;-2.80;99.90
19870;DHT22;10097;50.862;4.696;2022-12-13T00:19:47;-2.80;99.90
19870;DHT22;10097;50.862;4.696;2022-12-13T00:22:13;-2.90;99.90
19870;DHT22;10097;50.862;4.696;2022-12-13T00:24:39;-2.90;99.90
19870;DHT22;10097;50.862;4.696;2022-12-13T00:27:04;-2.90;99.90
19870;DHT22;10097;50.862;4.696;2022-12-13T00:29:31;-2.90;99.90
19870;DHT22;10097;50.862;4.696;2022-12-13T00:31:56;-2.90;99.90
19870;DHT22;10097;50.862;4.696;2022-12-13T00:34:22;-2.90;99.90
19870;DHT22;10097;50.862;4.696;2022-12-13T00:36:48;-3.00;99.90
19870;DHT22;10097;50.862;4.696;2022-12-13T00:39:14;-3.00;99.90
19870;DHT22;10097;50.862;4.696;2022-12-13T00:41:41;-3.00;99.90
19870;DHT22;10097;50.862;4.696;2022-12-13T00:44:10;-3.00;99.90
19870;DHT22;10097;50.862;4.696;2022-12-13T00:46:37;-3.00;99.90
19870;DHT22;10097;50.862;4.696;2022-12-13T00:49:03;-3.00;99.90
19870;DHT22;10097;50.862;4.696;2022-12-13T00:51:30;-3.00;99.90
19870;DHT22;10097;50.862;4.696;2022-12-13T00:53:56;-3.00;99.90
19870;DHT22;10097;50.862;4.696;2022-12-13T00:56:23;-3.10;99.90
19870;DHT22;10097;50.862;4.696;2022-12-13T00:58:50;-3.00;99.90
19870;DHT22;10097;50.862;4.696;2022-12-13T01:01:17;-3.00;99.90
19870;DHT22;10097;50.862;4.696;2022-12-13T01:03:44;-3.10;99.90
19870;DHT22;10097;50.862;4.696;2022-12-13T01:08:50;-3.00;99.90
19870;DHT22;10097;50.862;4.696;2022-12-13T01:11:16;-3.00;99.90
19870;DHT22;10097;50.862;4.696;2022-12-13T01:13:42;-2.90;99.90
19870;DHT22;10097;50.862;4.696;2022-12-13T01:16:09;-3.00;99.90
19870;DHT22;10097;50.862;4.696;2022-12-13T01:18:37;-3.00;99.90
19870;DHT22;10097;50.862;4.696;2022-12-13T01:21:06;-3.00;99.90
19870;DHT22;10097;50.862;4.696;2022-12-13T01:23:33;-3.00;99.90
19870;DHT22;10097;50.862;4.696;2022-12-13T01:26:04;-2.90;99.90
19870;DHT22;10097;50.862;4.696;2022-12-13T01:28:30;-3.00;99.90
19870;DHT22;10097;50.862;4.696;2022-12-13T01:30:58;-3.00;99.90
19870;DHT22;10097;50.862;4.696;2022-12-13T01:33:25;-3.00;99.90
19870;DHT22;10097;50.862;4.696;2022-12-13T01:35:50;-3.00;99.90
19870;DHT22;10097;50.862;4.696;2022-12-13T01:38:16;-3.00;99.90
19870;DHT22;10097;50.862;4.696;2022-12-13T01:40:47;-3.00;99.90
19870;DHT22;10097;50.862;4.696;2022-12-13T01:43:14;-3.00;99.90
19870;DHT22;10097;50.862;4.696;2022-12-13T01:45:41;-3.00;99.90
19870;DHT22;10097;50.862;4.696;2022-12-13T01:48:15;-3.00;99.90
19870;DHT22;10097;50.862;4.696;2022-12-13T01:50:46;-3.10;99.90
19870;DHT22;10097;50.862;4.696;2022-12-13T01:53:20;-3.10;99.90
19870;DHT22;10097;50.862;4.696;2022-12-13T01:55:53;-3.00;99.90
19870;DHT22;10097;50.862;4.696;2022-12-13T01:58:21;-3.00;99.90
19870;DHT22;10097;50.862;4.696;2022-12-13T02:00:47;-3.00;99.90
19870;DHT22;10097;50.862;4.696;2022-12-13T02:03:14;-3.00;99.90
19870;DHT22;10097;50.862;4.696;2022-12-13T02:05:44;-3.00;99.90
19870;DHT22;10097;50.862;4.696;2022-12-13T02:08:13;-3.00;99.90
19870;DHT22;10097;50.862;4.696;2022-12-13T02:10:41;-3.00;99.90
19870;DHT22;10097;50.862;4.696;2022-12-13T02:13:07;-3.00;99.90
19870;DHT22;10097;50.862;4.696;2022-12-13T02:23:54;-3.00;99.90
19870;DHT22;10097;50.862;4.696;2022-12-13T02:32:33;-2.90;99.90
19870;DHT22;10097;50.862;4.696;2022-12-13T02:35:10;-3.00;99.90
19870;DHT22;10097;50.862;4.696;2022-12-13T02:40:26;-3.00;99.90
19870;DHT22;10097;50.862;4.696;2022-12-13T02:45:35;-3.00;99.90
19870;DHT22;10097;50.862;4.696;2022-12-13T02:48:04;-3.00;99.90
19870;DHT22;10097;50.862;4.696;2022-12-13T02:50:32;-3.00;99.90
19870;DHT22;10097;50.862;4.696;2022-12-13T02:52:59;-3.10;99.90
19870;DHT22;10097;50.862;4.696;2022-12-13T02:55:25;-3.00;99.90
19870;DHT22;10097;50.862;4.696;2022-12-13T02:57:51;-3.00;99.90
19870;DHT22;10097;50.862;4.696;2022-12-13T03:00:42;-3.10;99.90
19870;DHT22;10097;50.862;4.696;2022-12-13T03:12:11;-3.00;99.90
19870;DHT22;10097;50.862;4.696;2022-12-13T03:15:20;-3.00;99.90
19870;DHT22;10097;50.862;4.696;2022-12-13T03:20:17;-3.00;99.90
19870;DHT22;10097;50.862;4.696;2022-12-13T03:22:43;-2.90;99.90
19870;DHT22;10097;50.862;4.696;2022-12-13T03:25:09;-3.00;99.90
19870;DHT22;10097;50.862;4.696;2022-12-13T03:27:34;-3.00;99.90
19870;DHT22;10097;50.862;4.696;2022-12-13T03:30:00;-2.90;99.90
19870;DHT22;10097;50.862;4.696;2022-12-13T03:32:26;-3.00;99.90
19870;DHT22;10097;50.862;4.696;2022-12-13T03:34:51;-3.00;99.90
19870;DHT22;10097;50.862;4.696;2022-12-13T03:37:17;-3.00;99.90
19870;DHT22;10097;50.862;4.696;2022-12-13T03:39:42;-3.10;99.90
19870;DHT22;10097;50.862;4.696;2022-12-13T03:42:08;-3.10;99.90
19870;DHT22;10097;50.862;4.696;2022-12-13T03:44:34;-3.10;99.90
19870;DHT22;10097;50.862;4.696;2022-12-13T03:46:59;-3.00;99.90
19870;DHT22;10097;50.862;4.696;2022-12-13T03:49:25;-3.00;99.90
19870;DHT22;10097;50.862;4.696;2022-12-13T03:51:51;-3.00;99.90
19870;DHT22;10097;50.862;4.696;2022-12-13T03:54:16;-3.00;99.90
19870;DHT22;10097;50.862;4.696;2022-12-13T03:56:42;-3.00;99.90
19870;DHT22;10097;50.862;4.696;2022-12-13T03:59:08;-3.00;99.90
19870;DHT22;10097;50.862;4.696;2022-12-13T04:01:33;-3.00;99.90
19870;DHT22;10097;50.862;4.696;2022-12-13T04:03:59;-2.90;99.90
19870;DHT22;10097;50.862;4.696;2022-12-13T04:06:24;-3.00;99.90
19870;DHT22;10097;50.862;4.696;2022-12-13T04:08:51;-3.00;99.90
19870;DHT22;10097;50.862;4.696;2022-12-13T04:11:17;-3.00;99.90
19870;DHT22;10097;50.862;4.696;2022-12-13T04:14:01;-3.00;99.90
19870;DHT22;10097;50.862;4.696;2022-12-13T04:16:27;-3.00;99.90
19870;DHT22;10097;50.862;4.696;2022-12-13T04:18:52;-2.90;99.90
19870;DHT22;10097;50.862;4.696;2022-12-13T04:21:18;-3.10;99.90
19870;DHT22;10097;50.862;4.696;2022-12-13T04:23:44;-3.00;99.90
19870;DHT22;10097;50.862;4.696;2022-12-13T04:26:09;-3.10;99.90
19870;DHT22;10097;50.862;4.696;2022-12-13T04:28:35;-3.10;99.90
19870;DHT22;10097;50.862;4.696;2022-12-13T04:31:00;-3.00;99.90
19870;DHT22;10097;50.862;4.696;2022-12-13T04:33:26;-3.00;99.90
19870;DHT22;10097;50.862;4.696;2022-12-13T04:35:52;-3.00;99.90
19870;DHT22;10097;50.862;4.696;2022-12-13T04:38:17;-3.00;99.90
19870;DHT22;10097;50.862;4.696;2022-12-13T04:40:43;-3.00;99.90
19870;DHT22;10097;50.862;4.696;2022-12-13T04:43:09;-3.00;99.90
19870;DHT22;10097;50.862;4.696;2022-12-13T04:45:34;-2.90;99.90
19870;DHT22;10097;50.862;4.696;2022-12-13T04:48:00;-2.90;99.90
19870;DHT22;10097;50.862;4.696;2022-12-13T04:50:26;-2.80;99.90
19870;DHT22;10097;50.862;4.696;2022-12-13T04:52:52;-2.90;99.90
19870;DHT22;10097;50.862;4.696;2022-12-13T04:55:17;-2.90;99.90
19870;DHT22;10097;50.862;4.696;2022-12-13T04:57:43;-2.80;99.90
19870;DHT22;10097;50.862;4.696;2022-12-13T05:00:11;-2.90;99.90
19870;DHT22;10097;50.862;4.696;2022-12-13T05:02:38;-2.90;99.90
19870;DHT22;10097;50.862;4.696;2022-12-13T05:05:07;-3.00;99.90
19870;DHT22;10097;50.862;4.696;2022-12-13T05:07:33;-3.00;99.90
19870;DHT22;10097;50.862;4.696;2022-12-13T05:09:58;-3.00;99.90
19870;DHT22;10097;50.862;4.696;2022-12-13T05:12:24;-3.00;99.90
19870;DHT22;10097;50.862;4.696;2022-12-13T05:14:50;-2.90;99.90
19870;DHT22;10097;50.862;4.696;2022-12-13T05:17:16;-3.00;99.90
19870;DHT22;10097;50.862;4.696;2022-12-13T05:19:42;-3.00;99.90
19870;DHT22;10097;50.862;4.696;2022-12-13T05:22:09;-3.00;99.90
19870;DHT22;10097;50.862;4.696;2022-12-13T05:24:43;-3.00;99.90
19870;DHT22;10097;50.862;4.696;2022-12-13T05:27:10;-3.00;99.90
19870;DHT22;10097;50.862;4.696;2022-12-13T05:29:36;-3.00;99.90
19870;DHT22;10097;50.862;4.696;2022-12-13T05:32:02;-3.10;99.90
19870;DHT22;10097;50.862;4.696;2022-12-13T05:34:28;-3.10;99.90
19870;DHT22;10097;50.862;4.696;2022-12-13T05:36:54;-3.10;99.90
19870;DHT22;10097;50.862;4.696;2022-12-13T05:39:20;-3.20;99.90
19870;DHT22;10097;50.862;4.696;2022-12-13T05:41:45;-3.20;99.90
19870;DHT22;10097;50.862;4.696;2022-12-13T05:44:11;-3.20;99.90
19870;DHT22;10097;50.862;4.696;2022-12-13T05:46:39;-3.20;99.90
19870;DHT22;10097;50.862;4.696;2022-12-13T05:49:05;-3.30;99.90
19870;DHT22;10097;50.862;4.696;2022-12-13T05:51:30;-3.30;99.90
19870;DHT22;10097;50.862;4.696;2022-12-13T05:53:56;-3.30;99.90
19870;DHT22;10097;50.862;4.696;2022-12-13T05:56:22;-3.20;99.90
19870;DHT22;10097;50.862;4.696;2022-12-13T05:58:47;-3.30;99.90
19870;DHT22;10097;50.862;4.696;2022-12-13T06:01:14;-3.30;99.90
19870;DHT22;10097;50.862;4.696;2022-12-13T06:03:42;-3.30;99.90
19870;DHT22;10097;50.862;4.696;2022-12-13T06:06:09;-3.30;99.90
19870;DHT22;10097;50.862;4.696;2022-12-13T06:08:35;-3.40;99.90
19870;DHT22;10097;50.862;4.696;2022-12-13T06:11:02;-3.40;99.90
19870;DHT22;10097;50.862;4.696;2022-12-13T06:13:28;-3.40;99.90
19870;DHT22;10097;50.862;4.696;2022-12-13T06:15:54;-3.50;99.90
19870;DHT22;10097;50.862;4.696;2022-12-13T06:18:24;-3.50;99.90
19870;DHT22;10097;50.862;4.696;2022-12-13T06:20:58;-3.50;99.90
19870;DHT22;10097;50.862;4.696;2022-12-13T06:23:25;-3.50;99.90
19870;DHT22;10097;50.862;4.696;2022-12-13T06:25:50;-3.40;99.90
19870;DHT22;10097;50.862;4.696;2022-12-13T06:28:16;-3.40;99.90
19870;DHT22;10097;50.862;4.696;2022-12-13T06:30:42;-3.50;99.90
19870;DHT22;10097;50.862;4.696;2022-12-13T06:33:08;-3.50;99.90
19870;DHT22;10097;50.862;4.696;2022-12-13T06:35:36;-3.50;99.90
19870;DHT22;10097;50.862;4.696;2022-12-13T06:38:01;-3.60;99.90
19870;DHT22;10097;50.862;4.696;2022-12-13T06:40:28;-3.50;99.90
19870;DHT22;10097;50.862;4.696;2022-12-13T06:42:54;-3.50;99.90
19870;DHT22;10097;50.862;4.696;2022-12-13T06:45:20;-3.50;99.90
19870;DHT22;10097;50.862;4.696;2022-12-13T06:47:46;-3.60;99.90
19870;DHT22;10097;50.862;4.696;2022-12-13T06:50:11;-3.60;99.90
19870;DHT22;10097;50.862;4.696;2022-12-13T06:52:37;-3.60;99.90
19870;DHT22;10097;50.862;4.696;2022-12-13T06:55:03;-3.60;99.90
19870;DHT22;10097;50.862;4.696;2022-12-13T06:57:32;-3.60;99.90
19870;DHT22;10097;50.862;4.696;2022-12-13T06:59:59;-3.60;99.90
19870;DHT22;10097;50.862;4.696;2022-12-13T07:02:24;-3.60;99.90
19870;DHT22;10097;50.862;4.696;2022-12-13T07:04:50;-3.60;99.90
19870;DHT22;10097;50.862;4.696;2022-12-13T07:07:15;-3.60;99.90
19870;DHT22;10097;50.862;4.696;2022-12-13T07:09:41;-3.60;99.90
19870;DHT22;10097;50.862;4.696;2022-12-13T07:12:07;-3.60;99.90
19870;DHT22;10097;50.862;4.696;2022-12-13T07:14:32;-3.60;99.90
19870;DHT22;10097;50.862;4.696;2022-12-13T07:16:58;-3.60;99.90
19870;DHT22;10097;50.862;4.696;2022-12-13T07:19:24;-3.60;99.90
19870;DHT22;10097;50.862;4.696;2022-12-13T07:21:50;-3.60;99.90
19870;DHT22;10097;50.862;4.696;2022-12-13T07:24:16;-3.70;99.90
19870;DHT22;10097;50.862;4.696;2022-12-13T07:26:41;-3.70;99.90
19870;DHT22;10097;50.862;4.696;2022-12-13T07:29:07;-3.70;99.90
19870;DHT22;10097;50.862;4.696;2022-12-13T07:31:34;-3.60;99.90
19870;DHT22;10097;50.862;4.696;2022-12-13T07:34:01;-3.60;99.90
19870;DHT22;10097;50.862;4.696;2022-12-13T07:36:26;-3.60;99.90
19870;DHT22;10097;50.862;4.696;2022-12-13T07:38:56;-3.60;99.90
19870;DHT22;10097;50.862;4.696;2022-12-13T07:41:22;-3.60;99.90
19870;DHT22;10097;50.862;4.696;2022-12-13T07:43:49;-3.60;99.90
19870;DHT22;10097;50.862;4.696;2022-12-13T07:46:14;-3.50;99.90
19870;DHT22;10097;50.862;4.696;2022-12-13T07:48:40;-3.60;99.90
19870;DHT22;10097;50.862;4.696;2022-12-13T07:51:08;-3.50;99.90
19870;DHT22;10097;50.862;4.696;2022-12-13T07:53:36;-3.50;99.90
19870;DHT22;10097;50.862;4.696;2022-12-13T07:56:04;-3.40;99.90
19870;DHT22;10097;50.862;4.696;2022-12-13T07:58:30;-3.40;99.90
19870;DHT22;10097;50.862;4.696;2022-12-13T08:01:06;-3.40;99.90
19870;DHT22;10097;50.862;4.696;2022-12-13T08:03:36;-3.40;99.90
19870;DHT22;10097;50.862;4.696;2022-12-13T08:06:03;-3.30;99.90
19870;DHT22;10097;50.862;4.696;2022-12-13T08:08:29;-3.30;99.90
19870;DHT22;10097;50.862;4.696;2022-12-13T08:11:03;-3.30;99.90
19870;DHT22;10097;50.862;4.696;2022-12-13T08:13:28;-3.20;99.90
19870;DHT22;10097;50.862;4.696;2022-12-13T08:15:58;-3.10;99.90
19870;DHT22;10097;50.862;4.696;2022-12-13T08:18:25;-3.00;99.90
19870;DHT22;10097;50.862;4.696;2022-12-13T08:20:51;-3.00;99.90
19870;DHT22;10097;50.862;4.696;2022-12-13T08:23:16;-2.90;99.90
19870;DHT22;10097;50.862;4.696;2022-12-13T08:25:42;-2.80;99.90
19870;DHT22;10097;50.862;4.696;2022-12-13T08:28:07;-2.70;99.90
19870;DHT22;10097;50.862;4.696;2022-12-13T08:30:33;-2.70;99.90
19870;DHT22;10097;50.862;4.696;2022-12-13T08:32:59;-2.60;99.90
19870;DHT22;10097;50.862;4.696;2022-12-13T08:35:31;-2.50;99.90
19870;DHT22;10097;50.862;4.696;2022-12-13T08:37:57;-2.50;99.90
19870;DHT22;10097;50.862;4.696;2022-12-13T08:40:22;-2.40;99.90
19870;DHT22;10097;50.862;4.696;2022-12-13T08:42:48;-2.40;99.90
19870;DHT22;10097;50.862;4.696;2022-12-13T08:45:13;-2.40;99.90
19870;DHT22;10097;50.862;4.696;2022-12-13T08:47:39;-2.30;99.90
19870;DHT22;10097;50.862;4.696;2022-12-13T08:50:05;-2.20;99.90
19870;DHT22;10097;50.862;4.696;2022-12-13T08:52:32;-2.30;99.90
19870;DHT22;10097;50.862;4.696;2022-12-13T08:54:58;-2.30;99.90
19870;DHT22;10097;50.862;4.696;2022-12-13T08:57:23;-2.30;99.90
19870;DHT22;10097;50.862;4.696;2022-12-13T08:59:49;-2.30;99.90
19870;DHT22;10097;50.862;4.696;2022-12-13T09:02:15;-2.30;99.90
19870;DHT22;10097;50.862;4.696;2022-12-13T09:04:41;-2.20;99.90
19870;DHT22;10097;50.862;4.696;2022-12-13T09:07:07;-2.20;99.90
19870;DHT22;10097;50.862;4.696;2022-12-13T09:09:33;-2.10;99.90
19870;DHT22;10097;50.862;4.696;2022-12-13T09:11:58;-2.10;99.90
19870;DHT22;10097;50.862;4.696;2022-12-13T09:14:24;-2.00;99.90
19870;DHT22;10097;50.862;4.696;2022-12-13T09:16:49;-1.90;99.90
19870;DHT22;10097;50.862;4.696;2022-12-13T09:19:15;-1.70;99.90
19870;DHT22;10097;50.862;4.696;2022-12-13T09:21:41;-1.50;99.90
19870;DHT22;10097;50.862;4.696;2022-12-13T09:24:06;-1.30;99.90
19870;DHT22;10097;50.862;4.696;2022-12-13T09:26:32;-1.30;99.90
19870;DHT22;10097;50.862;4.696;2022-12-13T09:28:58;-1.40;99.90
19870;DHT22;10097;50.862;4.696;2022-12-13T09:31:23;-1.30;99.90
19870;DHT22;10097;50.862;4.696;2022-12-13T09:33:50;-1.40;99.90
19870;DHT22;10097;50.862;4.696;2022-12-13T09:36:20;-1.40;99.90
19870;DHT22;10097;50.862;4.696;2022-12-13T09:38:47;-1.50;99.90
19870;DHT22;10097;50.862;4.696;2022-12-13T09:41:31;-1.30;99.90
19870;DHT22;10097;50.862;4.696;2022-12-13T09:44:03;-1.10;99.90
19870;DHT22;10097;50.862;4.696;2022-12-13T09:46:34;-0.90;99.90
19870;DHT22;10097;50.862;4.696;2022-12-13T09:49:02;-0.70;99.90
19870;DHT22;10097;50.862;4.696;2022-12-13T09:51:30;-0.50;99.90
19870;DHT22;10097;50.862;4.696;2022-12-13T09:53:57;-0.60;99.90
19870;DHT22;10097;50.862;4.696;2022-12-13T09:56:24;-0.60;99.90
19870;DHT22;10097;50.862;4.696;2022-12-13T09:58:52;-0.60;99.90
19870;DHT22;10097;50.862;4.696;2022-12-13T10:01:19;-0.70;99.90
19870;DHT22;10097;50.862;4.696;2022-12-13T10:03:53;-0.70;99.90
19870;DHT22;10097;50.862;4.696;2022-12-13T10:06:21;-0.60;99.90
19870;DHT22;10097;50.862;4.696;2022-12-13T10:08:50;-0.60;99.90
19870;DHT22;10097;50.862;4.696;2022-12-13T10:11:18;-0.70;99.90
19870;DHT22;10097;50.862;4.696;2022-12-13T10:14:09;-0.80;99.90
19870;DHT22;10097;50.862;4.696;2022-12-13T10:21:42;-0.70;99.90
19870;DHT22;10097;50.862;4.696;2022-12-13T10:24:16;-0.80;99.90
19870;DHT22;10097;50.862;4.696;2022-12-13T10:26:43;-0.70;99.90
19870;DHT22;10097;50.862;4.696;2022-12-13T10:29:09;-0.60;99.90
19870;DHT22;10097;50.862;4.696;2022-12-13T10:31:40;-0.50;99.90
19870;DHT22;10097;50.862;4.696;2022-12-13T10:36:47;-0.50;99.90
19870;DHT22;10097;50.862;4.696;2022-12-13T10:39:38;-0.60;99.90
19870;DHT22;10097;50.862;4.696;2022-12-13T10:42:14;-0.50;99.90
19870;DHT22;10097;50.862;4.696;2022-12-13T10:44:39;-0.40;99.90
19870;DHT22;10097;50.862;4.696;2022-12-13T10:49:38;-0.30;99.90
19870;DHT22;10097;50.862;4.696;2022-12-13T10:52:07;-0.20;99.90
19870;DHT22;10097;50.862;4.696;2022-12-13T10:54:45;-0.10;99.90
19870;DHT22;10097;50.862;4.696;2022-12-13T10:57:12;-0.10;99.90
19870;DHT22;10097;50.862;4.696;2022-12-13T10:59:38;0.00;99.90
19870;DHT22;10097;50.862;4.696;2022-12-13T11:04:59;0.20;99.90
19870;DHT22;10097;50.862;4.696;2022-12-13T11:07:40;0.40;99.90
19870;DHT22;10097;50.862;4.696;2022-12-13T11:12:45;0.20;99.90
19870;DHT22;10097;50.862;4.696;2022-12-13T11:15:17;0.20;99.90
19870;DHT22;10097;50.862;4.696;2022-12-13T11:17:50;0.40;99.90
19870;DHT22;10097;50.862;4.696;2022-12-13T11:20:35;0.60;99.90
19870;DHT22;10097;50.862;4.696;2022-12-13T11:23:26;0.70;99.90
19870;DHT22;10097;50.862;4.696;2022-12-13T11:26:15;0.80;99.90
19870;DHT22;10097;50.862;4.696;2022-12-13T11:31:30;1.20;99.90
19870;DHT22;10097;50.862;4.696;2022-12-13T11:39:47;1.60;99.90
19870;DHT22;10097;50.862;4.696;2022-12-13T11:45:09;1.80;99.90
19870;DHT22;10097;50.862;4.696;2022-12-13T11:50:19;2.10;99.90
19870;DHT22;10097;50.862;4.696;2022-12-13T11:52:52;2.20;99.90
19870;DHT22;10097;50.862;4.696;2022-12-13T11:55:36;2.40;99.90
19870;DHT22;10097;50.862;4.696;2022-12-13T11:58:13;2.40;99.90
19870;DHT22;10097;50.862;4.696;2022-12-13T12:00:50;2.30;99.90
19870;DHT22;10097;50.862;4.696;2022-12-13T12:03:48;2.30;99.90
19870;DHT22;10097;50.862;4.696;2022-12-13T12:06:23;2.50;99.90
19870;DHT22;10097;50.862;4.696;2022-12-13T12:09:00;2.60;99.90
19870;DHT22;10097;50.862;4.696;2022-12-13T12:11:50;2.60;99.90
19870;DHT22;10097;50.862;4.696;2022-12-13T12:14:23;2.50;99.90
19870;DHT22;10097;50.862;4.696;2022-12-13T12:16:55;2.70;99.90
19870;DHT22;10097;50.862;4.696;2022-12-13T12:19:32;2.90;99.90
19870;DHT22;10097;50.862;4.696;2022-12-13T12:22:42;2.80;99.90
19870;DHT22;10097;50.862;4.696;2022-12-13T12:36:37;3.20;99.90
19870;DHT22;10097;50.862;4.696;2022-12-13T12:44:29;3.30;99.90
19870;DHT22;10097;50.862;4.696;2022-12-13T12:47:10;3.40;99.90
19870;DHT22;10097;50.862;4.696;2022-12-13T12:55:18;3.30;99.90
19870;DHT22;10097;50.862;4.696;2022-12-13T13:00:41;3.00;99.90
19870;DHT22;10097;50.862;4.696;2022-12-13T13:03:23;2.80;99.90
19870;DHT22;10097;50.862;4.696;2022-12-13T13:06:02;2.90;99.90
19870;DHT22;10097;50.862;4.696;2022-12-13T13:11:22;2.90;99.90
19870;DHT22;10097;50.862;4.696;2022-12-13T13:14:27;2.80;99.90
19870;DHT22;10097;50.862;4.696;2022-12-13T13:16:53;2.70;99.90
19870;DHT22;10097;50.862;4.696;2022-12-13T13:21:56;2.60;99.90
19870;DHT22;10097;50.862;4.696;2022-12-13T13:24:31;2.70;99.90
19870;DHT22;10097;50.862;4.696;2022-12-13T13:29:37;2.70;99.90
19870;DHT22;10097;50.862;4.696;2022-12-13T13:34:45;2.70;99.90
19870;DHT22;10097;50.862;4.696;2022-12-13T13:42:26;2.70;99.90
19870;DHT22;10097;50.862;4.696;2022-12-13T13:47:40;2.80;99.90
19870;DHT22;10097;50.862;4.696;2022-12-13T13:53:21;2.80;99.90
19870;DHT22;10097;50.862;4.696;2022-12-13T13:55:51;2.80;99.90
19870;DHT22;10097;50.862;4.696;2022-12-13T13:58:34;2.60;99.90
19870;DHT22;10097;50.862;4.696;2022-12-13T14:04:08;2.60;99.90
19870;DHT22;10097;50.862;4.696;2022-12-13T14:07:12;2.50;99.90
19870;DHT22;10097;50.862;4.696;2022-12-13T14:18:55;2.20;99.90
19870;DHT22;10097;50.862;4.696;2022-12-13T14:27:26;1.80;99.90
19870;DHT22;10097;50.862;4.696;2022-12-13T14:29:33;1.80;99.90
19870;DHT22;10097;50.862;4.696;2022-12-13T14:32:08;1.80;99.90
19870;DHT22;10097;50.862;4.696;2022-12-13T14:34:36;1.80;99.90
19870;DHT22;10097;50.862;4.696;2022-12-13T14:37:25;1.70;99.90
19870;DHT22;10097;50.862;4.696;2022-12-13T14:40:01;1.60;99.90
19870;DHT22;10097;50.862;4.696;2022-12-13T14:42:32;1.60;99.90
19870;DHT22;10097;50.862;4.696;2022-12-13T14:45:25;1.50;99.90
19870;DHT22;10097;50.862;4.696;2022-12-13T14:47:56;1.50;99.90
19870;DHT22;10097;50.862;4.696;2022-12-13T14:50:24;1.40;99.90
19870;DHT22;10097;50.862;4.696;2022-12-13T14:52:50;1.40;99.90
19870;DHT22;10097;50.862;4.696;2022-12-13T14:55:26;1.40;99.90
19870;DHT22;10097;50.862;4.696;2022-12-13T14:57:55;1.40;99.90
19870;DHT22;10097;50.862;4.696;2022-12-13T15:00:28;1.40;99.90
19870;DHT22;10097;50.862;4.696;2022-12-13T15:02:58;1.30;99.90
19870;DHT22;10097;50.862;4.696;2022-12-13T15:05:30;1.20;99.90
19870;DHT22;10097;50.862;4.696;2022-12-13T15:07:57;1.10;99.90
19870;DHT22;10097;50.862;4.696;2022-12-13T15:12:56;1.00;99.90
19870;DHT22;10097;50.862;4.696;2022-12-13T15:15:30;0.90;99.90
19870;DHT22;10097;50.862;4.696;2022-12-13T15:18:17;1.00;99.90
19870;DHT22;10097;50.862;4.696;2022-12-13T15:20:44;0.90;99.90
19870;DHT22;10097;50.862;4.696;2022-12-13T15:23:26;0.90;99.90
19870;DHT22;10097;50.862;4.696;2022-12-13T15:26:07;0.80;99.90
19870;DHT22;10097;50.862;4.696;2022-12-13T15:28:36;0.70;99.90
19870;DHT22;10097;50.862;4.696;2022-12-13T15:31:04;0.70;99.90
19870;DHT22;10097;50.862;4.696;2022-12-13T15:33:31;0.70;99.90
19870;DHT22;10097;50.862;4.696;2022-12-13T15:38:59;0.60;99.90
19870;DHT22;10097;50.862;4.696;2022-12-13T15:41:36;0.50;99.90
19870;DHT22;10097;50.862;4.696;2022-12-13T15:46:45;0.50;99.90
19870;DHT22;10097;50.862;4.696;2022-12-13T15:51:58;0.50;99.90
19870;DHT22;10097;50.862;4.696;2022-12-13T15:54:26;0.60;99.90
19870;DHT22;10097;50.862;4.696;2022-12-13T15:59:29;0.50;99.90
19870;DHT22;10097;50.862;4.696;2022-12-13T16:01:55;0.50;99.90
19870;DHT22;10097;50.862;4.696;2022-12-13T16:04:23;0.40;99.90
19870;DHT22;10097;50.862;4.696;2022-12-13T16:06:51;0.40;99.90
19870;DHT22;10097;50.862;4.696;2022-12-13T16:09:19;0.50;99.90
19870;DHT22;10097;50.862;4.696;2022-12-13T16:17:02;0.30;99.90
19870;DHT22;10097;50.862;4.696;2022-12-13T16:19:29;0.30;99.90
19870;DHT22;10097;50.862;4.696;2022-12-13T16:21:56;0.40;99.90
19870;DHT22;10097;50.862;4.696;2022-12-13T16:24:22;0.40;99.90
19870;DHT22;10097;50.862;4.696;2022-12-13T16:26:48;0.40;99.90
19870;DHT22;10097;50.862;4.696;2022-12-13T16:29:17;0.40;99.90
19870;DHT22;10097;50.862;4.696;2022-12-13T16:31:45;0.50;99.90
19870;DHT22;10097;50.862;4.696;2022-12-13T16:34:11;0.50;99.90
19870;DHT22;10097;50.862;4.696;2022-12-13T16:36:38;0.60;99.90
19870;DHT22;10097;50.862;4.696;2022-12-13T16:39:05;0.70;99.90
19870;DHT22;10097;50.862;4.696;2022-12-13T16:41:41;0.70;99.90
19870;DHT22;10097;50.862;4.696;2022-12-13T16:44:17;0.80;99.90
19870;DHT22;10097;50.862;4.696;2022-12-13T16:46:43;0.70;99.90
19870;DHT22;10097;50.862;4.696;2022-12-13T16:49:19;0.60;99.90
19870;DHT22;10097;50.862;4.696;2022-12-13T16:51:45;0.60;99.90
19870;DHT22;10097;50.862;4.696;2022-12-13T16:54:11;0.50;99.90
19870;DHT22;10097;50.862;4.696;2022-12-13T16:56:37;0.50;99.90
19870;DHT22;10097;50.862;4.696;2022-12-13T16:59:02;0.50;99.90
19870;DHT22;10097;50.862;4.696;2022-12-13T17:01:28;0.60;99.90
19870;DHT22;10097;50.862;4.696;2022-12-13T17:03:57;0.60;99.90
19870;DHT22;10097;50.862;4.696;2022-12-13T17:06:23;0.60;99.90
19870;DHT22;10097;50.862;4.696;2022-12-13T17:08:49;0.60;99.90
19870;DHT22;10097;50.862;4.696;2022-12-13T17:11:15;0.60;99.90
19870;DHT22;10097;50.862;4.696;2022-12-13T17:13:40;0.60;99.90
19870;DHT22;10097;50.862;4.696;2022-12-13T17:16:09;0.60;99.90
19870;DHT22;10097;50.862;4.696;2022-12-13T17:18:35;0.70;99.90
19870;DHT22;10097;50.862;4.696;2022-12-13T17:21:08;0.70;99.90
19870;DHT22;10097;50.862;4.696;2022-12-13T17:23:34;0.60;99.90
19870;DHT22;10097;50.862;4.696;2022-12-13T17:26:04;0.50;99.90
19870;DHT22;10097;50.862;4.696;2022-12-13T17:28:30;0.50;99.90
19870;DHT22;10097;50.862;4.696;2022-12-13T17:31:07;0.50;99.90
19870;DHT22;10097;50.862;4.696;2022-12-13T17:33:33;0.50;99.90
19870;DHT22;10097;50.862;4.696;2022-12-13T17:36:01;0.60;99.90
19870;DHT22;10097;50.862;4.696;2022-12-13T17:38:27;0.60;99.90
19870;DHT22;10097;50.862;4.696;2022-12-13T17:40:53;0.50;99.90
19870;DHT22;10097;50.862;4.696;2022-12-13T17:43:19;0.50;99.90
19870;DHT22;10097;50.862;4.696;2022-12-13T17:45:45;0.30;99.90
19870;DHT22;10097;50.862;4.696;2022-12-13T17:48:10;0.30;99.90
19870;DHT22;10097;50.862;4.696;2022-12-13T17:50:37;0.40;99.90
19870;DHT22;10097;50.862;4.696;2022-12-13T17:53:02;0.50;99.90
19870;DHT22;10097;50.862;4.696;2022-12-13T17:55:31;0.50;99.90
19870;DHT22;10097;50.862;4.696;2022-12-13T17:57:57;0.50;99.90
19870;DHT22;10097;50.862;4.696;2022-12-13T18:00:23;0.50;99.90
19870;DHT22;10097;50.862;4.696;2022-12-13T18:02:48;0.50;99.90
19870;DHT22;10097;50.862;4.696;2022-12-13T18:05:14;0.40;99.90
19870;DHT22;10097;50.862;4.696;2022-12-13T18:07:40;0.50;99.90
19870;DHT22;10097;50.862;4.696;2022-12-13T18:10:06;0.40;99.90
19870;DHT22;10097;50.862;4.696;2022-12-13T18:12:32;0.40;99.90